sensor_id;sensor_type;location;lat;lon;timestamp;P1;durP1;ratioP1;P2;durP2;ratioP2
73172;SDS011;61388;54.962;73.394;2022-08-01T00:01:41;365.23;;;342.90;;
73172;SDS011;61388;54.962;73.394;2022-08-01T00:04:08;349.05;;;329.02;;
73172;SDS011;61388;54.962;73.394;2022-08-01T00:06:34;355.23;;;334.63;;
73172;SDS011;61388;54.962;73.394;2022-08-01T00:09:00;268.75;;;252.73;;
73172;SDS011;61388;54.962;73.394;2022-08-01T00:11:26;548.00;;;508.48;;
73172;SDS011;61388;54.962;73.394;2022-08-01T00:13:53;334.45;;;314.30;;
73172;SDS011;61388;54.962;73.394;2022-08-01T00:16:19;315.00;;;296.73;;
73172;SDS011;61388;54.962;73.394;2022-08-01T00:18:52;303.52;;;285.98;;
73172;SDS011;61388;54.962;73.394;2022-08-01T00:21:24;376.08;;;353.05;;
73172;SDS011;61388;54.962;73.394;2022-08-01T00:23:51;388.08;;;364.90;;
73172;SDS011;61388;54.962;73.394;2022-08-01T00:26:17;434.70;;;406.92;;
73172;SDS011;61388;54.962;73.394;2022-08-01T00:28:43;267.40;;;251.93;;
73172;SDS011;61388;54.962;73.394;2022-08-01T00:31:19;331.40;;;312.42;;
73172;SDS011;61388;54.962;73.394;2022-08-01T00:33:49;317.90;;;299.30;;
73172;SDS011;61388;54.962;73.394;2022-08-01T00:36:25;313.63;;;294.83;;
73172;SDS011;61388;54.962;73.394;2022-08-01T00:41:48;251.82;;;236.57;;
73172;SDS011;61388;54.962;73.394;2022-08-01T00:44:14;311.98;;;293.20;;
73172;SDS011;61388;54.962;73.394;2022-08-01T00:46:40;293.70;;;268.50;;
73172;SDS011;61388;54.962;73.394;2022-08-01T00:49:06;419.60;;;389.45;;
73172;SDS011;61388;54.962;73.394;2022-08-01T00:51:42;310.25;;;290.27;;
73172;SDS011;61388;54.962;73.394;2022-08-01T00:54:09;189.30;;;177.77;;
73172;SDS011;61388;54.962;73.394;2022-08-01T00:56:35;157.32;;;147.57;;
73172;SDS011;61388;54.962;73.394;2022-08-01T00:59:01;308.13;;;289.55;;
73172;SDS011;61388;54.962;73.394;2022-08-01T01:01:29;273.73;;;257.85;;
73172;SDS011;61388;54.962;73.394;2022-08-01T01:03:55;280.98;;;264.42;;
73172;SDS011;61388;54.962;73.394;2022-08-01T01:08:55;309.92;;;291.35;;
73172;SDS011;61388;54.962;73.394;2022-08-01T01:11:28;304.65;;;287.05;;
73172;SDS011;61388;54.962;73.394;2022-08-01T01:14:01;287.00;;;270.23;;
73172;SDS011;61388;54.962;73.394;2022-08-01T01:16:37;309.00;;;289.05;;
73172;SDS011;61388;54.962;73.394;2022-08-01T01:19:06;300.60;;;281.70;;
73172;SDS011;61388;54.962;73.394;2022-08-01T01:29:16;355.85;;;334.85;;
73172;SDS011;61388;54.962;73.394;2022-08-01T01:34:39;245.77;;;230.80;;
73172;SDS011;61388;54.962;73.394;2022-08-01T01:37:06;275.23;;;259.00;;
73172;SDS011;61388;54.962;73.394;2022-08-01T01:39:34;192.45;;;179.45;;
73172;SDS011;61388;54.962;73.394;2022-08-01T01:42:01;195.25;;;182.63;;
73172;SDS011;61388;54.962;73.394;2022-08-01T01:44:27;229.38;;;215.48;;
73172;SDS011;61388;54.962;73.394;2022-08-01T01:47:04;205.80;;;192.48;;
73172;SDS011;61388;54.962;73.394;2022-08-01T01:49:30;213.68;;;200.55;;
73172;SDS011;61388;54.962;73.394;2022-08-01T01:51:57;136.23;;;127.13;;
73172;SDS011;61388;54.962;73.394;2022-08-01T01:54:24;113.70;;;106.00;;
73172;SDS011;61388;54.962;73.394;2022-08-01T01:56:54;141.27;;;131.40;;
73172;SDS011;61388;54.962;73.394;2022-08-01T01:59:24;178.95;;;167.45;;
73172;SDS011;61388;54.962;73.394;2022-08-01T02:02:01;139.65;;;130.27;;
73172;SDS011;61388;54.962;73.394;2022-08-01T02:04:36;149.15;;;138.38;;
73172;SDS011;61388;54.962;73.394;2022-08-01T02:07:19;193.52;;;177.73;;
73172;SDS011;61388;54.962;73.394;2022-08-01T02:09:52;80.53;;;73.35;;
73172;SDS011;61388;54.962;73.394;2022-08-01T02:12:22;41.78;;;37.50;;
73172;SDS011;61388;54.962;73.394;2022-08-01T02:14:50;34.28;;;26.27;;
73172;SDS011;61388;54.962;73.394;2022-08-01T02:17:19;28.38;;;18.10;;
73172;SDS011;61388;54.962;73.394;2022-08-01T02:20:08;23.08;;;17.17;;
73172;SDS011;61388;54.962;73.394;2022-08-01T02:22:40;23.87;;;18.23;;
73172;SDS011;61388;54.962;73.394;2022-08-01T02:25:22;26.00;;;18.80;;
73172;SDS011;61388;54.962;73.394;2022-08-01T02:27:59;33.38;;;22.20;;
73172;SDS011;61388;54.962;73.394;2022-08-01T02:30:30;33.20;;;23.98;;
73172;SDS011;61388;54.962;73.394;2022-08-01T02:33:01;44.40;;;26.08;;
73172;SDS011;61388;54.962;73.394;2022-08-01T02:35:32;51.43;;;28.87;;
73172;SDS011;61388;54.962;73.394;2022-08-01T02:37:59;31.85;;;23.73;;
73172;SDS011;61388;54.962;73.394;2022-08-01T02:40:37;22.85;;;18.88;;
73172;SDS011;61388;54.962;73.394;2022-08-01T02:43:07;24.52;;;20.80;;
73172;SDS011;61388;54.962;73.394;2022-08-01T02:45:35;26.38;;;21.17;;
73172;SDS011;61388;54.962;73.394;2022-08-01T02:48:06;33.90;;;25.23;;
73172;SDS011;61388;54.962;73.394;2022-08-01T02:50:36;51.50;;;46.53;;
73172;SDS011;61388;54.962;73.394;2022-08-01T02:53:03;65.63;;;60.63;;
73172;SDS011;61388;54.962;73.394;2022-08-01T02:55:50;37.70;;;34.33;;
73172;SDS011;61388;54.962;73.394;2022-08-01T02:59:22;23.63;;;17.75;;
73172;SDS011;61388;54.962;73.394;2022-08-01T03:02:36;23.47;;;16.13;;
73172;SDS011;61388;54.962;73.394;2022-08-01T03:05:14;22.30;;;14.98;;
73172;SDS011;61388;54.962;73.394;2022-08-01T03:07:52;22.73;;;16.20;;
73172;SDS011;61388;54.962;73.394;2022-08-01T03:10:22;26.50;;;23.35;;
73172;SDS011;61388;54.962;73.394;2022-08-01T03:12:50;65.00;;;46.70;;
73172;SDS011;61388;54.962;73.394;2022-08-01T03:15:20;85.37;;;76.77;;
73172;SDS011;61388;54.962;73.394;2022-08-01T03:17:47;112.75;;;102.25;;
73172;SDS011;61388;54.962;73.394;2022-08-01T03:20:15;103.93;;;95.65;;
73172;SDS011;61388;54.962;73.394;2022-08-01T03:22:45;100.82;;;92.22;;
73172;SDS011;61388;54.962;73.394;2022-08-01T03:25:13;103.88;;;96.43;;
73172;SDS011;61388;54.962;73.394;2022-08-01T03:27:42;98.10;;;88.90;;
73172;SDS011;61388;54.962;73.394;2022-08-01T03:30:19;78.63;;;42.80;;
73172;SDS011;61388;54.962;73.394;2022-08-01T03:32:52;109.53;;;46.22;;
73172;SDS011;61388;54.962;73.394;2022-08-01T03:35:22;62.83;;;42.80;;
73172;SDS011;61388;54.962;73.394;2022-08-01T03:37:53;76.43;;;59.78;;
73172;SDS011;61388;54.962;73.394;2022-08-01T03:40:25;87.93;;;78.20;;
73172;SDS011;61388;54.962;73.394;2022-08-01T03:42:59;94.18;;;85.32;;
73172;SDS011;61388;54.962;73.394;2022-08-01T03:45:31;84.07;;;76.72;;
73172;SDS011;61388;54.962;73.394;2022-08-01T03:48:10;77.93;;;70.72;;
73172;SDS011;61388;54.962;73.394;2022-08-01T03:50:39;68.10;;;60.95;;
73172;SDS011;61388;54.962;73.394;2022-08-01T03:53:07;77.20;;;45.87;;
73172;SDS011;61388;54.962;73.394;2022-08-01T03:55:35;47.15;;;27.33;;
73172;SDS011;61388;54.962;73.394;2022-08-01T03:58:03;74.07;;;28.38;;
73172;SDS011;61388;54.962;73.394;2022-08-01T04:00:30;80.50;;;40.30;;
73172;SDS011;61388;54.962;73.394;2022-08-01T04:02:57;64.90;;;32.03;;
73172;SDS011;61388;54.962;73.394;2022-08-01T04:05:24;35.42;;;20.45;;
73172;SDS011;61388;54.962;73.394;2022-08-01T04:07:52;60.38;;;25.23;;
73172;SDS011;61388;54.962;73.394;2022-08-01T04:10:27;42.15;;;23.70;;
73172;SDS011;61388;54.962;73.394;2022-08-01T04:12:53;44.60;;;22.63;;
73172;SDS011;61388;54.962;73.394;2022-08-01T04:15:19;32.60;;;22.20;;
73172;SDS011;61388;54.962;73.394;2022-08-01T04:17:46;27.10;;;19.85;;
73172;SDS011;61388;54.962;73.394;2022-08-01T04:20:13;26.52;;;20.73;;
73172;SDS011;61388;54.962;73.394;2022-08-01T04:22:42;25.02;;;20.02;;
73172;SDS011;61388;54.962;73.394;2022-08-01T04:25:12;27.67;;;19.25;;
73172;SDS011;61388;54.962;73.394;2022-08-01T04:27:41;23.63;;;19.08;;
73172;SDS011;61388;54.962;73.394;2022-08-01T04:30:08;33.22;;;20.63;;
73172;SDS011;61388;54.962;73.394;2022-08-01T04:32:37;34.47;;;23.08;;
73172;SDS011;61388;54.962;73.394;2022-08-01T04:35:04;29.98;;;19.48;;
73172;SDS011;61388;54.962;73.394;2022-08-01T04:37:38;26.50;;;19.58;;
73172;SDS011;61388;54.962;73.394;2022-08-01T04:40:06;28.48;;;19.92;;
73172;SDS011;61388;54.962;73.394;2022-08-01T04:42:33;24.83;;;20.57;;
73172;SDS011;61388;54.962;73.394;2022-08-01T04:44:59;28.08;;;20.85;;
73172;SDS011;61388;54.962;73.394;2022-08-01T04:47:26;26.50;;;20.80;;
73172;SDS011;61388;54.962;73.394;2022-08-01T04:50:06;23.35;;;19.30;;
73172;SDS011;61388;54.962;73.394;2022-08-01T04:52:38;27.80;;;23.40;;
73172;SDS011;61388;54.962;73.394;2022-08-01T04:55:04;32.10;;;28.90;;
73172;SDS011;61388;54.962;73.394;2022-08-01T04:57:37;27.65;;;24.95;;
73172;SDS011;61388;54.962;73.394;2022-08-01T05:00:08;44.83;;;40.92;;
73172;SDS011;61388;54.962;73.394;2022-08-01T05:02:34;89.57;;;83.60;;
73172;SDS011;61388;54.962;73.394;2022-08-01T05:05:01;111.50;;;104.30;;
73172;SDS011;61388;54.962;73.394;2022-08-01T05:07:27;86.07;;;80.17;;
73172;SDS011;61388;54.962;73.394;2022-08-01T05:10:04;47.85;;;43.85;;
73172;SDS011;61388;54.962;73.394;2022-08-01T05:12:33;55.35;;;50.72;;
73172;SDS011;61388;54.962;73.394;2022-08-01T05:14:59;35.42;;;31.92;;
73172;SDS011;61388;54.962;73.394;2022-08-01T05:17:29;27.95;;;20.90;;
73172;SDS011;61388;54.962;73.394;2022-08-01T05:19:55;24.90;;;19.57;;
73172;SDS011;61388;54.962;73.394;2022-08-01T05:22:21;20.17;;;18.08;;
73172;SDS011;61388;54.962;73.394;2022-08-01T05:24:51;23.40;;;19.55;;
73172;SDS011;61388;54.962;73.394;2022-08-01T05:27:18;28.88;;;20.10;;
73172;SDS011;61388;54.962;73.394;2022-08-01T05:29:45;28.08;;;22.42;;
73172;SDS011;61388;54.962;73.394;2022-08-01T05:32:11;38.87;;;35.13;;
73172;SDS011;61388;54.962;73.394;2022-08-01T05:34:38;63.55;;;58.70;;
73172;SDS011;61388;54.962;73.394;2022-08-01T05:37:04;80.97;;;74.53;;
73172;SDS011;61388;54.962;73.394;2022-08-01T05:39:30;54.08;;;49.72;;
73172;SDS011;61388;54.962;73.394;2022-08-01T05:41:56;40.90;;;36.72;;
73172;SDS011;61388;54.962;73.394;2022-08-01T05:44:23;27.23;;;24.23;;
73172;SDS011;61388;54.962;73.394;2022-08-01T05:46:54;28.40;;;22.63;;
73172;SDS011;61388;54.962;73.394;2022-08-01T05:49:21;31.15;;;22.88;;
73172;SDS011;61388;54.962;73.394;2022-08-01T05:51:47;26.60;;;21.60;;
73172;SDS011;61388;54.962;73.394;2022-08-01T05:54:13;26.23;;;20.67;;
73172;SDS011;61388;54.962;73.394;2022-08-01T05:56:39;27.02;;;21.23;;
73172;SDS011;61388;54.962;73.394;2022-08-01T05:59:07;26.42;;;20.63;;
73172;SDS011;61388;54.962;73.394;2022-08-01T06:01:33;23.70;;;20.45;;
73172;SDS011;61388;54.962;73.394;2022-08-01T06:03:59;29.42;;;19.65;;
73172;SDS011;61388;54.962;73.394;2022-08-01T06:06:29;32.10;;;21.48;;
73172;SDS011;61388;54.962;73.394;2022-08-01T06:08:59;24.88;;;18.67;;
73172;SDS011;61388;54.962;73.394;2022-08-01T06:11:25;28.50;;;19.63;;
73172;SDS011;61388;54.962;73.394;2022-08-01T06:13:51;37.63;;;20.02;;
73172;SDS011;61388;54.962;73.394;2022-08-01T06:16:18;29.90;;;20.48;;
73172;SDS011;61388;54.962;73.394;2022-08-01T06:18:44;27.70;;;19.10;;
73172;SDS011;61388;54.962;73.394;2022-08-01T06:21:10;24.67;;;19.23;;
73172;SDS011;61388;54.962;73.394;2022-08-01T06:23:37;26.77;;;19.35;;
73172;SDS011;61388;54.962;73.394;2022-08-01T06:26:03;33.05;;;20.45;;
73172;SDS011;61388;54.962;73.394;2022-08-01T06:28:32;31.63;;;20.35;;
73172;SDS011;61388;54.962;73.394;2022-08-01T06:30:59;33.38;;;20.52;;
73172;SDS011;61388;54.962;73.394;2022-08-01T06:33:26;30.30;;;19.05;;
73172;SDS011;61388;54.962;73.394;2022-08-01T06:35:53;30.10;;;20.17;;
73172;SDS011;61388;54.962;73.394;2022-08-01T06:38:19;27.70;;;20.35;;
73172;SDS011;61388;54.962;73.394;2022-08-01T06:40:46;25.60;;;20.38;;
73172;SDS011;61388;54.962;73.394;2022-08-01T06:43:12;27.55;;;21.05;;
73172;SDS011;61388;54.962;73.394;2022-08-01T06:45:39;28.30;;;20.23;;
73172;SDS011;61388;54.962;73.394;2022-08-01T06:48:07;29.80;;;20.08;;
73172;SDS011;61388;54.962;73.394;2022-08-01T06:50:36;29.05;;;20.88;;
73172;SDS011;61388;54.962;73.394;2022-08-01T06:53:03;29.40;;;20.77;;
73172;SDS011;61388;54.962;73.394;2022-08-01T06:55:29;26.73;;;20.77;;
73172;SDS011;61388;54.962;73.394;2022-08-01T06:58:01;34.10;;;22.13;;
73172;SDS011;61388;54.962;73.394;2022-08-01T07:00:29;34.83;;;21.05;;
73172;SDS011;61388;54.962;73.394;2022-08-01T07:02:57;27.23;;;19.90;;
73172;SDS011;61388;54.962;73.394;2022-08-01T07:05:27;27.98;;;20.58;;
73172;SDS011;61388;54.962;73.394;2022-08-01T07:07:56;35.35;;;19.50;;
73172;SDS011;61388;54.962;73.394;2022-08-01T07:10:26;26.95;;;18.70;;
73172;SDS011;61388;54.962;73.394;2022-08-01T07:12:52;24.80;;;18.45;;
73172;SDS011;61388;54.962;73.394;2022-08-01T07:15:19;27.27;;;18.23;;
73172;SDS011;61388;54.962;73.394;2022-08-01T07:17:47;24.70;;;18.42;;
73172;SDS011;61388;54.962;73.394;2022-08-01T07:20:14;29.35;;;20.58;;
73172;SDS011;61388;54.962;73.394;2022-08-01T07:22:48;25.00;;;17.42;;
73172;SDS011;61388;54.962;73.394;2022-08-01T07:25:15;29.90;;;18.40;;
73172;SDS011;61388;54.962;73.394;2022-08-01T07:27:46;32.28;;;18.48;;
73172;SDS011;61388;54.962;73.394;2022-08-01T07:30:18;26.23;;;19.63;;
73172;SDS011;61388;54.962;73.394;2022-08-01T07:32:44;21.63;;;18.45;;
73172;SDS011;61388;54.962;73.394;2022-08-01T07:35:14;39.05;;;24.55;;
73172;SDS011;61388;54.962;73.394;2022-08-01T07:41:08;24.25;;;17.40;;
73172;SDS011;61388;54.962;73.394;2022-08-01T07:43:43;26.48;;;18.33;;
73172;SDS011;61388;54.962;73.394;2022-08-01T07:46:13;21.83;;;17.48;;
73172;SDS011;61388;54.962;73.394;2022-08-01T07:48:51;20.90;;;17.73;;
73172;SDS011;61388;54.962;73.394;2022-08-01T07:51:34;27.95;;;16.95;;
73172;SDS011;61388;54.962;73.394;2022-08-01T07:54:10;22.48;;;15.23;;
73172;SDS011;61388;54.962;73.394;2022-08-01T07:56:47;21.65;;;15.13;;
73172;SDS011;61388;54.962;73.394;2022-08-01T07:59:13;18.38;;;15.00;;
73172;SDS011;61388;54.962;73.394;2022-08-01T08:01:45;21.00;;;15.10;;
73172;SDS011;61388;54.962;73.394;2022-08-01T08:04:11;26.75;;;14.38;;
73172;SDS011;61388;54.962;73.394;2022-08-01T08:06:50;20.40;;;13.85;;
73172;SDS011;61388;54.962;73.394;2022-08-01T08:09:32;23.45;;;14.80;;
73172;SDS011;61388;54.962;73.394;2022-08-01T08:11:58;21.05;;;15.75;;
73172;SDS011;61388;54.962;73.394;2022-08-01T08:14:27;23.00;;;14.90;;
73172;SDS011;61388;54.962;73.394;2022-08-01T08:16:55;27.65;;;14.68;;
73172;SDS011;61388;54.962;73.394;2022-08-01T08:19:21;22.05;;;13.77;;
73172;SDS011;61388;54.962;73.394;2022-08-01T08:21:52;20.60;;;13.80;;
73172;SDS011;61388;54.962;73.394;2022-08-01T08:24:23;20.50;;;14.63;;
73172;SDS011;61388;54.962;73.394;2022-08-01T08:26:52;18.83;;;14.13;;
73172;SDS011;61388;54.962;73.394;2022-08-01T08:29:26;18.27;;;14.25;;
73172;SDS011;61388;54.962;73.394;2022-08-01T08:31:58;22.40;;;12.60;;
73172;SDS011;61388;54.962;73.394;2022-08-01T08:34:26;21.67;;;10.80;;
73172;SDS011;61388;54.962;73.394;2022-08-01T08:36:55;21.02;;;9.90;;
73172;SDS011;61388;54.962;73.394;2022-08-01T08:39:27;13.95;;;10.80;;
73172;SDS011;61388;54.962;73.394;2022-08-01T08:42:00;24.33;;;9.70;;
73172;SDS011;61388;54.962;73.394;2022-08-01T08:44:29;18.73;;;8.73;;
73172;SDS011;61388;54.962;73.394;2022-08-01T08:47:03;17.85;;;13.20;;
73172;SDS011;61388;54.962;73.394;2022-08-01T08:49:52;18.10;;;8.05;;
73172;SDS011;61388;54.962;73.394;2022-08-01T08:52:35;16.60;;;9.32;;
73172;SDS011;61388;54.962;73.394;2022-08-01T08:55:10;14.13;;;7.82;;
73172;SDS011;61388;54.962;73.394;2022-08-01T08:57:43;12.10;;;7.55;;
73172;SDS011;61388;54.962;73.394;2022-08-01T09:00:16;16.88;;;10.27;;
73172;SDS011;61388;54.962;73.394;2022-08-01T09:02:52;18.83;;;7.50;;
73172;SDS011;61388;54.962;73.394;2022-08-01T09:05:29;21.20;;;8.10;;
73172;SDS011;61388;54.962;73.394;2022-08-01T09:07:58;15.10;;;12.43;;
73172;SDS011;61388;54.962;73.394;2022-08-01T09:10:34;13.18;;;7.90;;
73172;SDS011;61388;54.962;73.394;2022-08-01T09:13:07;17.92;;;7.45;;
73172;SDS011;61388;54.962;73.394;2022-08-01T09:15:51;16.40;;;7.53;;
73172;SDS011;61388;54.962;73.394;2022-08-01T09:21:12;10.75;;;7.05;;
73172;SDS011;61388;54.962;73.394;2022-08-01T09:23:52;13.82;;;7.03;;
73172;SDS011;61388;54.962;73.394;2022-08-01T09:26:28;17.67;;;6.22;;
73172;SDS011;61388;54.962;73.394;2022-08-01T09:28:55;12.98;;;7.25;;
73172;SDS011;61388;54.962;73.394;2022-08-01T09:31:22;15.77;;;7.97;;
73172;SDS011;61388;54.962;73.394;2022-08-01T09:33:56;10.38;;;6.85;;
73172;SDS011;61388;54.962;73.394;2022-08-01T09:36:45;15.45;;;7.63;;
73172;SDS011;61388;54.962;73.394;2022-08-01T09:39:19;15.20;;;7.30;;
73172;SDS011;61388;54.962;73.394;2022-08-01T09:41:46;12.18;;;6.40;;
73172;SDS011;61388;54.962;73.394;2022-08-01T09:44:18;9.60;;;6.30;;
73172;SDS011;61388;54.962;73.394;2022-08-01T09:46:51;18.35;;;6.38;;
73172;SDS011;61388;54.962;73.394;2022-08-01T09:49:36;10.35;;;6.35;;
73172;SDS011;61388;54.962;73.394;2022-08-01T09:52:19;14.30;;;7.75;;
73172;SDS011;61388;54.962;73.394;2022-08-01T09:54:55;12.90;;;6.35;;
73172;SDS011;61388;54.962;73.394;2022-08-01T09:57:22;11.45;;;6.15;;
73172;SDS011;61388;54.962;73.394;2022-08-01T09:59:52;9.82;;;6.07;;
73172;SDS011;61388;54.962;73.394;2022-08-01T10:02:33;9.10;;;6.22;;
73172;SDS011;61388;54.962;73.394;2022-08-01T10:05:03;10.52;;;5.70;;
73172;SDS011;61388;54.962;73.394;2022-08-01T10:07:30;8.48;;;5.57;;
73172;SDS011;61388;54.962;73.394;2022-08-01T10:10:12;9.05;;;4.50;;
73172;SDS011;61388;54.962;73.394;2022-08-01T10:12:39;7.47;;;5.35;;
73172;SDS011;61388;54.962;73.394;2022-08-01T10:15:06;6.38;;;5.30;;
73172;SDS011;61388;54.962;73.394;2022-08-01T10:17:36;11.00;;;5.10;;
73172;SDS011;61388;54.962;73.394;2022-08-01T10:20:07;12.23;;;5.18;;
73172;SDS011;61388;54.962;73.394;2022-08-01T10:22:39;7.15;;;5.45;;
73172;SDS011;61388;54.962;73.394;2022-08-01T10:26:10;10.88;;;5.10;;
73172;SDS011;61388;54.962;73.394;2022-08-01T10:28:59;11.80;;;5.70;;
73172;SDS011;61388;54.962;73.394;2022-08-01T10:31:46;11.93;;;5.25;;
73172;SDS011;61388;54.962;73.394;2022-08-01T10:34:26;9.90;;;5.57;;
73172;SDS011;61388;54.962;73.394;2022-08-01T10:37:05;11.85;;;5.47;;
73172;SDS011;61388;54.962;73.394;2022-08-01T10:39:39;10.70;;;4.75;;
73172;SDS011;61388;54.962;73.394;2022-08-01T10:42:11;6.35;;;4.43;;
73172;SDS011;61388;54.962;73.394;2022-08-01T10:44:38;7.95;;;4.18;;
73172;SDS011;61388;54.962;73.394;2022-08-01T10:47:09;11.40;;;5.30;;
73172;SDS011;61388;54.962;73.394;2022-08-01T10:49:36;8.77;;;4.32;;
73172;SDS011;61388;54.962;73.394;2022-08-01T10:52:07;10.95;;;4.10;;
73172;SDS011;61388;54.962;73.394;2022-08-01T10:54:41;8.43;;;4.10;;
73172;SDS011;61388;54.962;73.394;2022-08-01T10:57:46;14.85;;;4.45;;
73172;SDS011;61388;54.962;73.394;2022-08-01T11:00:29;10.00;;;3.90;;
73172;SDS011;61388;54.962;73.394;2022-08-01T11:03:05;12.50;;;3.90;;
73172;SDS011;61388;54.962;73.394;2022-08-01T11:05:54;12.48;;;4.70;;
73172;SDS011;61388;54.962;73.394;2022-08-01T11:08:36;10.43;;;5.90;;
73172;SDS011;61388;54.962;73.394;2022-08-01T11:21:01;13.10;;;3.55;;
73172;SDS011;61388;54.962;73.394;2022-08-01T11:23:50;11.27;;;3.60;;
73172;SDS011;61388;54.962;73.394;2022-08-01T11:26:19;10.48;;;3.78;;
73172;SDS011;61388;54.962;73.394;2022-08-01T11:31:45;5.72;;;3.60;;
73172;SDS011;61388;54.962;73.394;2022-08-01T11:37:45;10.15;;;3.67;;
73172;SDS011;61388;54.962;73.394;2022-08-01T11:40:23;8.98;;;3.45;;
73172;SDS011;61388;54.962;73.394;2022-08-01T11:43:18;9.45;;;4.13;;
73172;SDS011;61388;54.962;73.394;2022-08-01T11:46:02;12.63;;;3.97;;
73172;SDS011;61388;54.962;73.394;2022-08-01T11:48:43;7.97;;;3.40;;
73172;SDS011;61388;54.962;73.394;2022-08-01T11:51:16;12.82;;;3.72;;
73172;SDS011;61388;54.962;73.394;2022-08-01T11:53:46;9.23;;;3.78;;
73172;SDS011;61388;54.962;73.394;2022-08-01T11:56:14;12.82;;;4.13;;
73172;SDS011;61388;54.962;73.394;2022-08-01T11:58:58;9.80;;;3.15;;
73172;SDS011;61388;54.962;73.394;2022-08-01T12:01:26;7.68;;;3.60;;
73172;SDS011;61388;54.962;73.394;2022-08-01T12:03:55;11.88;;;4.00;;
73172;SDS011;61388;54.962;73.394;2022-08-01T12:06:34;7.53;;;3.08;;
73172;SDS011;61388;54.962;73.394;2022-08-01T12:09:16;5.13;;;2.95;;
73172;SDS011;61388;54.962;73.394;2022-08-01T12:11:45;11.88;;;3.90;;
73172;SDS011;61388;54.962;73.394;2022-08-01T12:14:19;8.07;;;3.78;;
73172;SDS011;61388;54.962;73.394;2022-08-01T12:16:52;8.20;;;5.25;;
73172;SDS011;61388;54.962;73.394;2022-08-01T12:19:24;9.38;;;4.15;;
73172;SDS011;61388;54.962;73.394;2022-08-01T12:22:10;7.32;;;2.97;;
73172;SDS011;61388;54.962;73.394;2022-08-01T12:24:43;8.15;;;5.53;;
73172;SDS011;61388;54.962;73.394;2022-08-01T12:27:10;12.95;;;5.38;;
73172;SDS011;61388;54.962;73.394;2022-08-01T12:32:24;13.13;;;4.15;;
73172;SDS011;61388;54.962;73.394;2022-08-01T12:34:51;10.05;;;2.65;;
73172;SDS011;61388;54.962;73.394;2022-08-01T12:37:17;6.50;;;3.10;;
73172;SDS011;61388;54.962;73.394;2022-08-01T12:39:45;7.43;;;2.85;;
73172;SDS011;61388;54.962;73.394;2022-08-01T12:42:11;9.48;;;3.05;;
73172;SDS011;61388;54.962;73.394;2022-08-01T12:44:39;11.32;;;3.67;;
73172;SDS011;61388;54.962;73.394;2022-08-01T12:47:15;7.38;;;3.60;;
73172;SDS011;61388;54.962;73.394;2022-08-01T12:49:47;8.95;;;3.90;;
73172;SDS011;61388;54.962;73.394;2022-08-01T12:52:14;10.13;;;2.97;;
73172;SDS011;61388;54.962;73.394;2022-08-01T12:57:27;11.45;;;4.32;;
73172;SDS011;61388;54.962;73.394;2022-08-01T13:00:05;12.38;;;7.13;;
73172;SDS011;61388;54.962;73.394;2022-08-01T13:02:32;7.15;;;3.33;;
73172;SDS011;61388;54.962;73.394;2022-08-01T13:04:59;9.13;;;4.47;;
73172;SDS011;61388;54.962;73.394;2022-08-01T13:07:39;15.55;;;8.48;;
73172;SDS011;61388;54.962;73.394;2022-08-01T13:10:06;10.93;;;4.15;;
73172;SDS011;61388;54.962;73.394;2022-08-01T13:12:33;8.40;;;3.47;;
73172;SDS011;61388;54.962;73.394;2022-08-01T13:15:14;9.32;;;3.03;;
73172;SDS011;61388;54.962;73.394;2022-08-01T13:17:41;9.40;;;3.97;;
73172;SDS011;61388;54.962;73.394;2022-08-01T13:23:11;6.47;;;3.28;;
73172;SDS011;61388;54.962;73.394;2022-08-01T13:25:47;22.52;;;12.45;;
73172;SDS011;61388;54.962;73.394;2022-08-01T13:28:26;9.02;;;5.13;;
73172;SDS011;61388;54.962;73.394;2022-08-01T13:30:53;10.77;;;4.18;;
73172;SDS011;61388;54.962;73.394;2022-08-01T13:33:19;11.75;;;4.45;;
73172;SDS011;61388;54.962;73.394;2022-08-01T13:35:45;11.88;;;4.13;;
73172;SDS011;61388;54.962;73.394;2022-08-01T13:38:23;16.15;;;7.32;;
73172;SDS011;61388;54.962;73.394;2022-08-01T13:41:12;10.35;;;4.82;;
73172;SDS011;61388;54.962;73.394;2022-08-01T13:43:38;8.82;;;3.15;;
73172;SDS011;61388;54.962;73.394;2022-08-01T13:46:06;16.40;;;4.60;;
73172;SDS011;61388;54.962;73.394;2022-08-01T13:48:32;14.93;;;5.72;;
73172;SDS011;61388;54.962;73.394;2022-08-01T13:51:04;11.15;;;4.63;;
73172;SDS011;61388;54.962;73.394;2022-08-01T13:53:35;16.45;;;4.22;;
73172;SDS011;61388;54.962;73.394;2022-08-01T13:56:01;15.75;;;6.68;;
73172;SDS011;61388;54.962;73.394;2022-08-01T13:58:37;14.80;;;4.82;;
73172;SDS011;61388;54.962;73.394;2022-08-01T14:01:13;11.77;;;5.88;;
73172;SDS011;61388;54.962;73.394;2022-08-01T14:03:39;19.05;;;10.07;;
73172;SDS011;61388;54.962;73.394;2022-08-01T14:06:06;19.45;;;11.32;;
73172;SDS011;61388;54.962;73.394;2022-08-01T14:08:32;17.15;;;6.72;;
73172;SDS011;61388;54.962;73.394;2022-08-01T14:11:09;19.55;;;6.10;;
73172;SDS011;61388;54.962;73.394;2022-08-01T14:13:35;17.35;;;9.10;;
73172;SDS011;61388;54.962;73.394;2022-08-01T14:16:05;171.40;;;76.68;;
73172;SDS011;61388;54.962;73.394;2022-08-01T14:18:40;13.60;;;6.88;;
73172;SDS011;61388;54.962;73.394;2022-08-01T14:21:06;24.63;;;12.18;;
73172;SDS011;61388;54.962;73.394;2022-08-01T14:23:37;13.90;;;6.10;;
73172;SDS011;61388;54.962;73.394;2022-08-01T14:26:03;79.90;;;43.72;;
73172;SDS011;61388;54.962;73.394;2022-08-01T14:28:29;28.60;;;13.07;;
73172;SDS011;61388;54.962;73.394;2022-08-01T14:30:56;14.23;;;8.13;;
73172;SDS011;61388;54.962;73.394;2022-08-01T14:33:22;10.27;;;4.80;;
73172;SDS011;61388;54.962;73.394;2022-08-01T14:35:49;17.40;;;5.72;;
73172;SDS011;61388;54.962;73.394;2022-08-01T14:38:15;18.73;;;9.00;;
73172;SDS011;61388;54.962;73.394;2022-08-01T14:40:41;19.63;;;8.07;;
73172;SDS011;61388;54.962;73.394;2022-08-01T14:43:07;17.13;;;8.05;;
73172;SDS011;61388;54.962;73.394;2022-08-01T14:45:43;10.80;;;5.85;;
73172;SDS011;61388;54.962;73.394;2022-08-01T14:48:09;15.27;;;4.85;;
73172;SDS011;61388;54.962;73.394;2022-08-01T14:50:36;13.05;;;6.00;;
73172;SDS011;61388;54.962;73.394;2022-08-01T14:53:07;16.00;;;7.63;;
73172;SDS011;61388;54.962;73.394;2022-08-01T14:55:33;24.55;;;10.13;;
73172;SDS011;61388;54.962;73.394;2022-08-01T14:57:59;34.15;;;18.10;;
73172;SDS011;61388;54.962;73.394;2022-08-01T15:00:25;19.77;;;8.48;;
73172;SDS011;61388;54.962;73.394;2022-08-01T15:02:51;18.75;;;9.18;;
73172;SDS011;61388;54.962;73.394;2022-08-01T15:05:18;18.33;;;7.93;;
73172;SDS011;61388;54.962;73.394;2022-08-01T15:07:44;15.48;;;6.75;;
73172;SDS011;61388;54.962;73.394;2022-08-01T15:10:10;15.93;;;8.13;;
73172;SDS011;61388;54.962;73.394;2022-08-01T15:12:36;16.15;;;6.53;;
73172;SDS011;61388;54.962;73.394;2022-08-01T15:15:13;23.08;;;8.98;;
73172;SDS011;61388;54.962;73.394;2022-08-01T15:17:39;19.77;;;7.45;;
73172;SDS011;61388;54.962;73.394;2022-08-01T15:20:06;16.73;;;6.68;;
73172;SDS011;61388;54.962;73.394;2022-08-01T15:22:32;21.20;;;6.57;;